createdAt,value
2023-06-13T00:01:15.418Z,68.40
2023-06-13T00:03:42.277Z,68.30
2023-06-13T00:06:10.210Z,68.30
2023-06-13T00:08:37.041Z,68.30
2023-06-13T00:11:03.893Z,68.30
2023-06-13T00:13:30.874Z,68.30
2023-06-13T00:15:59.686Z,68.40
2023-06-13T00:18:30.395Z,68.40
2023-06-13T00:20:59.645Z,68.50
2023-06-13T00:23:27.894Z,68.40
2023-06-13T00:25:54.952Z,68.40
2023-06-13T00:28:21.886Z,68.50
2023-06-13T00:30:48.656Z,68.30
2023-06-13T00:33:17.568Z,68.30
2023-06-13T00:35:46.650Z,68.40
2023-06-13T00:38:13.882Z,68.30
2023-06-13T00:40:41.429Z,68.30
2023-06-13T00:43:08.565Z,68.40
2023-06-13T00:45:35.814Z,68.30
2023-06-13T00:48:08.009Z,68.30
2023-06-13T00:50:37.252Z,68.30
2023-06-13T00:53:10.777Z,68.30
2023-06-13T00:55:39.032Z,68.20
2023-06-13T00:58:07.976Z,68.30
2023-06-13T01:00:36.803Z,68.10
2023-06-13T01:03:08.212Z,68.20
2023-06-13T01:05:35.973Z,68.20
2023-06-13T01:08:07.627Z,68.30
2023-06-13T01:10:35.034Z,68.20
2023-06-13T01:13:20.732Z,68.20
2023-06-13T01:16:16.691Z,68.20
2023-06-13T01:18:50.527Z,68.20
2023-06-13T01:21:19.565Z,67.90
2023-06-13T01:23:53.271Z,68.20
2023-06-13T01:26:44.475Z,68.20
2023-06-13T01:29:12.022Z,68.20
2023-06-13T01:31:40.597Z,68.70
2023-06-13T01:34:07.895Z,68.20
2023-06-13T01:36:35.637Z,68.10
2023-06-13T01:39:04.297Z,68.10
2023-06-13T01:41:31.093Z,68.10
2023-06-13T01:43:59.112Z,68.00
2023-06-13T01:46:30.408Z,67.90
2023-06-13T01:49:17.643Z,68.00
2023-06-13T01:52:01.182Z,67.90
2023-06-13T01:54:32.032Z,67.90
2023-06-13T01:57:03.228Z,67.90
2023-06-13T01:59:30.894Z,67.90
2023-06-13T02:01:59.320Z,67.90
2023-06-13T02:04:27.288Z,67.90
2023-06-13T02:06:54.002Z,67.90
2023-06-13T02:09:20.783Z,67.90
2023-06-13T02:11:47.553Z,67.90
2023-06-13T02:14:14.333Z,67.90
2023-06-13T02:16:41.460Z,67.80
2023-06-13T02:19:08.885Z,67.90
2023-06-13T02:21:35.698Z,67.90
2023-06-13T02:24:02.631Z,67.90
2023-06-13T02:26:30.191Z,67.90
2023-06-13T02:28:58.890Z,67.90
2023-06-13T02:31:25.999Z,67.90
2023-06-13T02:33:55.958Z,67.90
2023-06-13T02:36:22.826Z,67.90
2023-06-13T02:38:49.589Z,67.90
2023-06-13T02:41:16.372Z,67.80
2023-06-13T02:43:43.093Z,67.90
2023-06-13T02:46:09.933Z,67.90
2023-06-13T02:48:36.804Z,67.80
2023-06-13T02:51:04.556Z,67.80
2023-06-13T02:53:31.933Z,67.80
2023-06-13T02:55:58.705Z,67.70
2023-06-13T02:58:25.512Z,67.70
2023-06-13T03:00:52.944Z,67.60
2023-06-13T03:03:25.067Z,67.60
2023-06-13T03:05:57.532Z,67.50
2023-06-13T03:08:29.231Z,67.70
2023-06-13T03:10:57.965Z,67.60
2023-06-13T03:13:26.291Z,67.70
2023-06-13T03:15:54.124Z,67.70
2023-06-13T03:18:24.531Z,67.70
2023-06-13T03:20:51.531Z,67.60
2023-06-13T03:23:22.014Z,67.60
2023-06-13T03:25:48.881Z,67.70
2023-06-13T03:28:15.863Z,67.60
2023-06-13T03:30:43.487Z,67.70
2023-06-13T03:33:11.034Z,67.70
2023-06-13T03:35:41.398Z,67.70
2023-06-13T03:38:09.122Z,67.60
2023-06-13T03:40:35.916Z,67.60
2023-06-13T03:43:02.616Z,67.60
2023-06-13T03:45:29.389Z,67.50
2023-06-13T03:47:56.538Z,67.60
2023-06-13T03:50:24.004Z,67.50
2023-06-13T03:52:50.809Z,67.60
2023-06-13T03:55:19.254Z,67.60
2023-06-13T03:57:47.318Z,67.60
2023-06-13T04:00:14.764Z,67.60
2023-06-13T04:02:42.464Z,67.60
2023-06-13T04:05:13.563Z,67.50
2023-06-13T04:07:41.603Z,67.40
2023-06-13T04:10:08.598Z,67.40
2023-06-13T04:12:36.630Z,67.40
2023-06-13T04:15:03.995Z,67.40
2023-06-13T04:17:33.210Z,67.40
2023-06-13T04:20:00.055Z,67.40
2023-06-13T04:22:28.217Z,67.40
2023-06-13T04:24:55.148Z,67.30
2023-06-13T04:27:28.729Z,67.30
2023-06-13T04:29:57.497Z,67.30
2023-06-13T04:32:29.491Z,67.10
2023-06-13T04:34:59.302Z,67.00
2023-06-13T04:37:31.645Z,67.10
2023-06-13T04:39:58.863Z,67.20
2023-06-13T04:42:28.140Z,66.80
2023-06-13T04:44:59.477Z,67.00
2023-06-13T04:47:35.199Z,66.90
2023-06-13T04:50:14.366Z,66.70
2023-06-13T04:52:41.892Z,66.50
2023-06-13T04:55:09.160Z,66.60
2023-06-13T04:57:36.031Z,66.70
2023-06-13T05:00:07.510Z,66.50
2023-06-13T05:02:36.298Z,66.50
2023-06-13T05:05:05.944Z,66.40
2023-06-13T05:07:32.841Z,66.80
2023-06-13T05:09:59.594Z,66.70
2023-06-13T05:12:26.519Z,66.70
2023-06-13T05:14:53.245Z,66.50
2023-06-13T05:17:19.998Z,66.60
2023-06-13T05:19:47.786Z,66.60
2023-06-13T05:22:16.222Z,66.30
2023-06-13T05:24:44.139Z,66.20
2023-06-13T05:27:11.047Z,66.20
2023-06-13T05:29:37.884Z,66.10
2023-06-13T05:32:04.999Z,65.90
2023-06-13T05:34:32.433Z,65.90
2023-06-13T05:36:59.229Z,66.00
2023-06-13T05:39:26.151Z,65.70
2023-06-13T05:41:52.885Z,65.10
2023-06-13T05:44:19.638Z,65.40
2023-06-13T05:46:46.325Z,65.70
2023-06-13T05:49:13.557Z,65.20
2023-06-13T05:51:40.513Z,65.60
2023-06-13T05:54:07.241Z,65.70
2023-06-13T05:56:34.786Z,65.30
2023-06-13T05:59:01.496Z,65.50
2023-06-13T06:01:30.238Z,65.10
2023-06-13T06:03:57.713Z,65.50
2023-06-13T06:06:25.501Z,65.10
2023-06-13T06:08:52.228Z,65.10
2023-06-13T06:11:18.960Z,65.00
2023-06-13T06:13:46.052Z,64.70
2023-06-13T06:16:13.033Z,64.60
2023-06-13T06:18:39.860Z,64.90
2023-06-13T06:21:07.882Z,64.90
2023-06-13T06:23:34.678Z,63.90
2023-06-13T06:26:01.420Z,62.80
2023-06-13T06:28:28.126Z,62.70
2023-06-13T06:30:54.993Z,63.40
2023-06-13T06:33:21.839Z,64.20
2023-06-13T06:35:48.621Z,64.50
2023-06-13T06:38:15.977Z,64.60
2023-06-13T06:40:42.671Z,64.20
2023-06-13T06:43:09.348Z,63.90
2023-06-13T06:45:36.503Z,64.10
2023-06-13T06:48:03.602Z,63.60
2023-06-13T06:50:30.470Z,63.80
2023-06-13T06:52:57.209Z,63.30
2023-06-13T06:55:23.963Z,63.20
2023-06-13T06:57:54.315Z,63.50
2023-06-13T07:00:23.075Z,64.30
2023-06-13T07:02:50.316Z,65.20
2023-06-13T07:05:17.170Z,63.70
2023-06-13T07:07:45.199Z,64.30
2023-06-13T07:10:12.607Z,63.80
2023-06-13T07:12:40.781Z,64.10
2023-06-13T07:15:08.292Z,63.70
2023-06-13T07:17:35.124Z,63.90
2023-06-13T07:20:02.224Z,63.20
2023-06-13T07:22:28.971Z,63.50
2023-06-13T07:24:55.854Z,64.00
2023-06-13T07:27:22.824Z,63.60
2023-06-13T07:29:49.532Z,64.10
2023-06-13T07:32:16.702Z,64.30
2023-06-13T07:35:03.319Z,64.00
2023-06-13T07:37:30.178Z,63.90
2023-06-13T07:39:56.925Z,64.40
2023-06-13T07:42:23.842Z,64.20
2023-06-13T07:44:50.990Z,63.70
2023-06-13T07:47:17.873Z,64.20
2023-06-13T07:49:44.628Z,64.20
2023-06-13T07:52:11.509Z,64.60
2023-06-13T07:54:38.281Z,64.00
2023-06-13T07:57:15.443Z,63.90
2023-06-13T07:59:52.143Z,64.10
2023-06-13T08:02:18.984Z,64.00
2023-06-13T08:04:54.047Z,64.00
2023-06-13T08:07:22.074Z,64.20
2023-06-13T08:09:48.937Z,64.00
2023-06-13T08:12:16.292Z,64.70
2023-06-13T08:14:43.029Z,63.40
2023-06-13T08:17:09.868Z,63.70
2023-06-13T08:19:36.996Z,63.90
2023-06-13T08:22:03.929Z,64.50
2023-06-13T08:24:31.202Z,64.10
2023-06-13T08:26:58.517Z,64.00
2023-06-13T08:29:29.380Z,64.10
2023-06-13T08:31:57.267Z,64.10
2023-06-13T08:34:24.615Z,64.40
2023-06-13T08:36:51.656Z,64.60
2023-06-13T08:39:18.719Z,64.40
2023-06-13T08:41:46.249Z,64.60
2023-06-13T08:44:13.093Z,64.30
2023-06-13T08:46:40.124Z,63.60
2023-06-13T08:49:07.139Z,63.60
2023-06-13T08:51:33.967Z,63.20
2023-06-13T08:54:02.121Z,63.50
2023-06-13T08:56:33.523Z,63.70
2023-06-13T08:59:09.755Z,64.00
2023-06-13T09:01:40.701Z,63.40
2023-06-13T09:04:09.211Z,63.10
2023-06-13T09:06:38.563Z,62.70
2023-06-13T09:09:09.317Z,62.50
2023-06-13T09:11:36.803Z,62.80
2023-06-13T09:14:05.137Z,63.10
2023-06-13T09:16:32.944Z,63.20
2023-06-13T09:19:00.629Z,63.60
2023-06-13T09:21:29.845Z,63.20
2023-06-13T09:23:57.892Z,63.10
2023-06-13T09:26:25.127Z,63.30
2023-06-13T09:28:52.951Z,63.70
2023-06-13T09:31:19.838Z,63.30
2023-06-13T09:33:46.892Z,63.40
2023-06-13T09:36:14.073Z,63.40
2023-06-13T09:38:42.655Z,63.60
2023-06-13T09:41:13.664Z,62.90
2023-06-13T09:43:42.657Z,62.60
2023-06-13T09:46:13.974Z,63.00
2023-06-13T09:48:48.170Z,63.30
2023-06-13T09:51:15.143Z,62.70
2023-06-13T09:53:45.146Z,62.10
2023-06-13T09:56:12.214Z,62.90
2023-06-13T09:58:39.354Z,62.80
2023-06-13T10:01:13.178Z,63.00
2023-06-13T10:03:40.351Z,63.70
2023-06-13T10:06:07.187Z,64.00
2023-06-13T10:08:35.230Z,63.50
2023-06-13T10:11:08.673Z,63.20
2023-06-13T10:13:46.284Z,62.40
2023-06-13T10:16:15.183Z,61.80
2023-06-13T10:18:45.900Z,62.30
2023-06-13T10:21:14.643Z,61.70
2023-06-13T10:23:46.075Z,61.50
2023-06-13T10:26:18.214Z,60.60
2023-06-13T10:28:53.874Z,60.90
2023-06-13T10:31:48.257Z,61.10
2023-06-13T10:34:41.146Z,61.20
2023-06-13T10:37:31.850Z,61.60
2023-06-13T10:40:07.551Z,61.90
2023-06-13T10:42:46.238Z,60.80
2023-06-13T10:45:19.941Z,61.20
2023-06-13T10:47:46.726Z,61.30
2023-06-13T10:50:17.231Z,61.40
2023-06-13T10:52:47.123Z,61.10
2023-06-13T10:55:23.550Z,60.80
2023-06-13T10:57:52.332Z,60.80
2023-06-13T11:00:34.682Z,61.40
2023-06-13T11:03:14.680Z,61.30
2023-06-13T11:05:50.792Z,61.30
2023-06-13T11:08:20.034Z,61.10
2023-06-13T11:10:48.622Z,60.50
2023-06-13T11:13:32.490Z,60.90
2023-06-13T11:16:18.853Z,60.60
2023-06-13T11:18:49.294Z,60.50
2023-06-13T11:21:16.914Z,60.30
2023-06-13T11:23:56.014Z,60.20
2023-06-13T11:26:23.101Z,59.80
2023-06-13T11:28:51.873Z,60.40
2023-06-13T11:31:19.311Z,60.50
2023-06-13T11:33:51.611Z,60.80
2023-06-13T11:36:20.428Z,60.50
2023-06-13T11:39:09.047Z,60.40
2023-06-13T11:41:37.647Z,60.20
2023-06-13T11:44:04.611Z,60.20
2023-06-13T11:46:31.931Z,60.20
2023-06-13T11:48:59.469Z,60.40
2023-06-13T11:51:31.844Z,60.40
2023-06-13T11:54:02.028Z,60.50
2023-06-13T11:56:30.133Z,60.90
2023-06-13T11:58:58.601Z,60.60
2023-06-13T12:01:28.924Z,60.60
2023-06-13T12:03:59.587Z,60.60
2023-06-13T12:06:27.451Z,60.40
2023-06-13T12:08:54.413Z,60.60
2023-06-13T12:11:26.208Z,60.50
2023-06-13T12:13:58.301Z,60.40
2023-06-13T12:16:36.482Z,60.60
2023-06-13T12:19:05.241Z,60.70
2023-06-13T12:21:36.295Z,60.60
2023-06-13T12:24:05.097Z,60.40
2023-06-13T12:26:34.064Z,60.10
2023-06-13T12:29:06.964Z,60.40
2023-06-13T12:31:44.831Z,60.30
2023-06-13T12:34:17.492Z,60.60
2023-06-13T12:36:46.049Z,60.70
2023-06-13T12:39:17.679Z,60.80
2023-06-13T12:41:53.960Z,60.60
2023-06-13T12:44:22.864Z,60.90
2023-06-13T12:46:52.434Z,60.60
2023-06-13T12:49:23.892Z,60.60
2023-06-13T12:51:55.981Z,60.40
2023-06-13T12:54:26.870Z,59.90
2023-06-13T12:57:01.733Z,60.20
2023-06-13T12:59:36.749Z,60.20
2023-06-13T13:02:10.003Z,60.20
2023-06-13T13:04:38.349Z,60.30
2023-06-13T13:07:06.690Z,60.00
2023-06-13T13:09:38.217Z,60.60
2023-06-13T13:12:05.534Z,59.70
2023-06-13T13:14:32.303Z,59.90
2023-06-13T13:16:59.498Z,60.20
2023-06-13T13:19:26.224Z,60.10
2023-06-13T13:21:53.457Z,60.60
2023-06-13T13:24:20.554Z,60.00
2023-06-13T13:26:50.034Z,60.00
2023-06-13T13:29:17.131Z,59.80
2023-06-13T13:31:44.217Z,59.00
2023-06-13T13:36:42.406Z,59.60
2023-06-13T13:39:10.570Z,60.00
2023-06-13T13:41:37.767Z,59.60
2023-06-13T13:44:06.831Z,60.10
2023-06-13T13:46:33.865Z,59.70
2023-06-13T13:49:01.247Z,59.30
2023-06-13T13:51:30.092Z,59.70
2023-06-13T13:53:57.676Z,59.80
2023-06-13T13:56:24.451Z,59.80
2023-06-13T13:58:51.328Z,59.60
2023-06-13T14:01:21.299Z,59.80
2023-06-13T14:03:48.717Z,59.20
2023-06-13T14:06:15.575Z,59.20
2023-06-13T14:08:42.330Z,58.70
2023-06-13T14:11:09.070Z,59.10
2023-06-13T14:13:35.818Z,59.30
2023-06-13T14:16:04.679Z,59.70
2023-06-13T14:18:31.941Z,59.50
2023-06-13T14:20:59.283Z,59.70
2023-06-13T14:23:26.106Z,59.50
2023-06-13T14:25:52.845Z,59.50
2023-06-13T14:28:20.009Z,59.10
2023-06-13T14:30:46.911Z,58.80
2023-06-13T14:33:13.737Z,59.00
2023-06-13T14:35:40.772Z,59.00
2023-06-13T14:38:07.517Z,58.50
2023-06-13T14:40:34.408Z,57.90
2023-06-13T14:43:01.194Z,59.00
2023-06-13T14:45:28.206Z,58.10
2023-06-13T14:47:55.834Z,58.30
2023-06-13T14:50:23.174Z,58.30
2023-06-13T14:52:49.909Z,58.00
2023-06-13T14:55:16.630Z,58.40
2023-06-13T14:57:43.471Z,58.70
2023-06-13T15:00:11.669Z,58.70
2023-06-13T15:02:39.087Z,58.40
2023-06-13T15:05:06.596Z,58.80
2023-06-13T15:07:33.774Z,58.50
2023-06-13T15:10:00.690Z,58.80
2023-06-13T15:12:28.134Z,58.90
2023-06-13T15:14:55.401Z,59.20
2023-06-13T15:17:22.511Z,59.10
2023-06-13T15:19:49.618Z,59.00
2023-06-13T15:22:16.617Z,59.00
2023-06-13T15:24:43.368Z,58.70
2023-06-13T15:27:11.121Z,58.70
2023-06-13T15:29:38.063Z,58.90
2023-06-13T15:32:05.671Z,59.00
2023-06-13T15:34:33.022Z,58.90
2023-06-13T15:37:01.707Z,58.60
2023-06-13T15:39:29.000Z,59.30
2023-06-13T15:41:55.714Z,58.00
2023-06-13T15:44:22.588Z,57.30
2023-06-13T15:46:50.133Z,58.10
2023-06-13T15:49:17.051Z,58.40
2023-06-13T15:51:44.223Z,58.20
2023-06-13T15:54:11.017Z,58.10
2023-06-13T15:56:37.829Z,57.70
2023-06-13T15:59:04.920Z,57.70
2023-06-13T16:01:31.673Z,58.10
2023-06-13T16:03:58.545Z,58.50
2023-06-13T16:06:25.379Z,58.90
2023-06-13T16:08:52.251Z,59.10
2023-06-13T16:11:19.374Z,58.40
2023-06-13T16:13:46.339Z,58.40
2023-06-13T16:16:13.115Z,58.90
2023-06-13T16:18:40.119Z,58.70
2023-06-13T16:21:07.047Z,58.80
2023-06-13T16:23:34.871Z,58.70
2023-06-13T16:26:01.686Z,58.70
2023-06-13T16:28:28.439Z,58.90
2023-06-13T16:30:55.205Z,58.70
2023-06-13T16:33:21.993Z,59.20
2023-06-13T16:35:48.749Z,59.50
2023-06-13T16:38:15.622Z,59.10
2023-06-13T16:40:43.032Z,59.00
2023-06-13T16:43:10.411Z,58.40
2023-06-13T16:45:37.763Z,58.50
2023-06-13T16:48:04.989Z,58.80
2023-06-13T16:50:32.059Z,58.80
2023-06-13T16:53:00.095Z,58.70
2023-06-13T16:55:28.666Z,58.70
2023-06-13T16:57:56.403Z,59.00
2023-06-13T17:00:23.407Z,58.80
2023-06-13T17:02:50.225Z,58.80
2023-06-13T17:05:17.371Z,59.00
2023-06-13T17:07:44.474Z,58.90
2023-06-13T17:10:11.690Z,59.10
2023-06-13T17:12:43.513Z,59.20
2023-06-13T17:15:11.056Z,59.20
2023-06-13T17:17:38.257Z,59.60
2023-06-13T17:20:09.224Z,60.00
2023-06-13T17:22:36.522Z,59.20
2023-06-13T17:25:03.948Z,59.60
2023-06-13T17:27:30.670Z,59.10
2023-06-13T17:29:57.443Z,59.00
2023-06-13T17:32:24.255Z,59.30
2023-06-13T17:34:51.256Z,59.10
2023-06-13T17:37:18.822Z,59.50
2023-06-13T17:39:46.035Z,59.30
2023-06-13T17:42:12.798Z,59.50
2023-06-13T17:44:39.564Z,59.30
2023-06-13T17:47:07.486Z,59.60
2023-06-13T17:49:34.725Z,59.80
2023-06-13T17:52:01.738Z,59.80
2023-06-13T17:54:28.612Z,59.70
2023-06-13T17:56:55.380Z,59.50
2023-06-13T17:59:22.325Z,59.30
2023-06-13T18:01:50.132Z,60.30
2023-06-13T18:04:17.330Z,59.20
2023-06-13T18:06:44.259Z,59.70
2023-06-13T18:09:11.828Z,59.40
2023-06-13T18:11:38.781Z,59.40
2023-06-13T18:14:09.074Z,59.10
2023-06-13T18:16:37.126Z,59.60
2023-06-13T18:19:05.637Z,59.30
2023-06-13T18:21:34.184Z,59.70
2023-06-13T18:24:01.870Z,59.70
2023-06-13T18:26:29.020Z,59.50
2023-06-13T18:28:55.979Z,59.80
2023-06-13T18:31:22.870Z,59.80
2023-06-13T18:33:49.740Z,59.80
2023-06-13T18:36:16.962Z,59.90
2023-06-13T18:38:44.315Z,59.80
2023-06-13T18:41:11.463Z,59.80
2023-06-13T18:43:38.893Z,59.90
2023-06-13T18:46:05.774Z,59.50
2023-06-13T18:48:33.653Z,60.00
2023-06-13T18:51:00.785Z,59.80
2023-06-13T18:53:28.097Z,60.00
2023-06-13T18:55:55.376Z,60.10
2023-06-13T18:58:22.086Z,60.20
2023-06-13T19:00:49.523Z,60.50
2023-06-13T19:03:16.637Z,60.20
2023-06-13T19:05:43.804Z,60.30
2023-06-13T19:08:10.834Z,60.30
2023-06-13T19:10:37.790Z,61.00
2023-06-13T19:13:04.929Z,60.50
2023-06-13T19:15:33.556Z,60.60
2023-06-13T19:18:01.324Z,60.80
2023-06-13T19:20:28.204Z,60.70
2023-06-13T19:22:55.440Z,60.90
2023-06-13T19:25:26.313Z,61.00
2023-06-13T19:27:58.219Z,60.80
2023-06-13T19:30:27.730Z,61.30
2023-06-13T19:32:55.530Z,61.20
2023-06-13T19:35:23.062Z,61.20
2023-06-13T19:37:49.840Z,61.40
2023-06-13T19:40:17.954Z,61.20
2023-06-13T19:42:44.648Z,61.00
2023-06-13T19:45:11.896Z,61.50
2023-06-13T19:47:38.671Z,61.10
2023-06-13T19:50:06.282Z,61.30
2023-06-13T19:52:34.939Z,61.50
2023-06-13T19:55:02.089Z,61.50
2023-06-13T19:57:31.610Z,61.40
2023-06-13T19:59:58.393Z,61.60
2023-06-13T20:02:25.251Z,61.50
2023-06-13T20:04:52.136Z,61.50
2023-06-13T20:07:18.984Z,61.70
2023-06-13T20:09:45.719Z,61.70
2023-06-13T20:12:12.637Z,61.50
2023-06-13T20:14:39.306Z,61.70
2023-06-13T20:17:07.075Z,61.60
2023-06-13T20:19:33.978Z,61.80
2023-06-13T20:22:00.712Z,61.80
2023-06-13T20:24:27.484Z,61.90
2023-06-13T20:26:54.276Z,61.90
2023-06-13T20:29:21.096Z,62.00
2023-06-13T20:31:48.521Z,61.80
2023-06-13T20:34:17.392Z,61.90
2023-06-13T20:36:44.279Z,62.10
2023-06-13T20:39:11.018Z,61.90
2023-06-13T20:41:38.121Z,62.10
2023-06-13T20:44:08.463Z,61.90
2023-06-13T20:46:39.251Z,61.90
2023-06-13T20:49:07.087Z,61.90
2023-06-13T20:51:38.742Z,62.20
2023-06-13T20:54:05.856Z,62.30
2023-06-13T20:56:32.605Z,62.10
2023-06-13T20:58:59.648Z,62.20
2023-06-13T21:01:28.532Z,62.10
2023-06-13T21:03:55.474Z,62.40
2023-06-13T21:06:22.297Z,62.20
2023-06-13T21:08:49.024Z,62.30
2023-06-13T21:11:15.791Z,62.10
2023-06-13T21:13:42.859Z,62.30
2023-06-13T21:16:09.664Z,62.20
2023-06-13T21:18:36.573Z,62.20
2023-06-13T21:21:03.444Z,62.30
2023-06-13T21:23:30.221Z,62.50
2023-06-13T21:25:57.028Z,62.30
2023-06-13T21:28:23.753Z,62.60
2023-06-13T21:30:50.614Z,62.50
2023-06-13T21:33:18.506Z,62.50
2023-06-13T21:35:45.351Z,62.50
2023-06-13T21:38:12.899Z,62.60
2023-06-13T21:40:39.584Z,62.40
2023-06-13T21:43:06.283Z,63.10
2023-06-13T21:45:33.204Z,62.70
2023-06-13T21:48:00.561Z,62.50
2023-06-13T21:50:27.546Z,62.60
2023-06-13T21:52:54.279Z,62.50
2023-06-13T21:55:21.352Z,63.40
2023-06-13T21:57:48.254Z,62.60
2023-06-13T22:00:17.222Z,62.70
2023-06-13T22:02:46.238Z,62.60
2023-06-13T22:05:13.862Z,62.60
2023-06-13T22:07:41.500Z,62.60
2023-06-13T22:10:08.551Z,62.60
2023-06-13T22:12:36.673Z,62.60
2023-06-13T22:15:07.354Z,62.70
2023-06-13T22:17:34.202Z,62.70
2023-06-13T22:20:23.342Z,62.70
2023-06-13T22:22:54.244Z,62.70
2023-06-13T22:25:22.507Z,62.70
2023-06-13T22:27:49.298Z,63.40
2023-06-13T22:30:16.277Z,62.80
2023-06-13T22:32:43.189Z,62.80
2023-06-13T22:35:11.200Z,62.80
2023-06-13T22:37:38.953Z,62.80
2023-06-13T22:40:10.475Z,62.90
2023-06-13T22:42:37.513Z,62.90
2023-06-13T22:45:05.824Z,62.90
2023-06-13T22:47:38.014Z,62.90
2023-06-13T22:50:05.890Z,62.90
2023-06-13T22:52:32.891Z,63.00
2023-06-13T22:54:59.808Z,62.90
2023-06-13T22:57:29.926Z,63.00
2023-06-13T22:59:57.617Z,63.00
2023-06-13T23:02:24.657Z,63.00
2023-06-13T23:04:53.902Z,63.00
2023-06-13T23:07:21.039Z,63.10
2023-06-13T23:09:47.812Z,63.00
2023-06-13T23:12:14.574Z,63.10
2023-06-13T23:14:41.373Z,63.10
2023-06-13T23:17:08.198Z,63.10
2023-06-13T23:19:35.401Z,63.10
2023-06-13T23:22:02.430Z,63.20
2023-06-13T23:24:30.839Z,63.20
2023-06-13T23:26:58.157Z,63.80
2023-06-13T23:29:24.967Z,63.20
2023-06-13T23:31:51.780Z,63.20
2023-06-13T23:34:18.816Z,63.20
2023-06-13T23:36:45.926Z,63.20
2023-06-13T23:41:42.810Z,63.20
2023-06-13T23:44:09.661Z,63.30
2023-06-13T23:46:36.473Z,63.30
2023-06-13T23:49:03.275Z,63.30
2023-06-13T23:51:30.055Z,63.30
2023-06-13T23:53:56.804Z,63.30
2023-06-13T23:56:23.504Z,63.30
2023-06-13T23:58:50.236Z,63.30
